sensor_id;sensor_type;location;lat;lon;timestamp;P1;durP1;ratioP1;P2;durP2;ratioP2
8333;SDS011;4204;43.004;23.052;2023-10-19T00:00:15;12.60;;;9.87;;
8333;SDS011;4204;43.004;23.052;2023-10-19T00:05:17;12.97;;;9.73;;
8333;SDS011;4204;43.004;23.052;2023-10-19T00:07:46;14.10;;;10.17;;
8333;SDS011;4204;43.004;23.052;2023-10-19T00:10:13;12.47;;;9.80;;
8333;SDS011;4204;43.004;23.052;2023-10-19T00:12:43;12.20;;;9.50;;
8333;SDS011;4204;43.004;23.052;2023-10-19T00:15:10;11.43;;;9.83;;
8333;SDS011;4204;43.004;23.052;2023-10-19T00:17:40;9.90;;;8.83;;
8333;SDS011;4204;43.004;23.052;2023-10-19T00:20:12;11.93;;;10.20;;
8333;SDS011;4204;43.004;23.052;2023-10-19T00:23:15;10.53;;;8.93;;
8333;SDS011;4204;43.004;23.052;2023-10-19T00:25:44;13.03;;;9.63;;
8333;SDS011;4204;43.004;23.052;2023-10-19T00:28:17;11.93;;;9.77;;
8333;SDS011;4204;43.004;23.052;2023-10-19T00:30:44;9.80;;;8.73;;
8333;SDS011;4204;43.004;23.052;2023-10-19T00:33:14;11.70;;;9.63;;
8333;SDS011;4204;43.004;23.052;2023-10-19T00:35:47;14.00;;;10.40;;
8333;SDS011;4204;43.004;23.052;2023-10-19T00:38:23;11.67;;;9.90;;
8333;SDS011;4204;43.004;23.052;2023-10-19T00:41:07;11.27;;;9.43;;
8333;SDS011;4204;43.004;23.052;2023-10-19T00:43:40;12.00;;;10.47;;
8333;SDS011;4204;43.004;23.052;2023-10-19T00:46:12;12.60;;;10.33;;
8333;SDS011;4204;43.004;23.052;2023-10-19T00:48:48;11.10;;;9.60;;
8333;SDS011;4204;43.004;23.052;2023-10-19T00:51:20;12.70;;;9.17;;
8333;SDS011;4204;43.004;23.052;2023-10-19T00:54:10;11.83;;;9.50;;
8333;SDS011;4204;43.004;23.052;2023-10-19T00:56:42;11.40;;;9.17;;
8333;SDS011;4204;43.004;23.052;2023-10-19T00:59:14;11.57;;;9.40;;
8333;SDS011;4204;43.004;23.052;2023-10-19T01:01:49;11.33;;;8.53;;
8333;SDS011;4204;43.004;23.052;2023-10-19T01:04:20;10.40;;;8.63;;
8333;SDS011;4204;43.004;23.052;2023-10-19T01:06:50;10.77;;;9.30;;
8333;SDS011;4204;43.004;23.052;2023-10-19T01:09:31;11.00;;;9.23;;
8333;SDS011;4204;43.004;23.052;2023-10-19T01:12:01;12.60;;;9.80;;
8333;SDS011;4204;43.004;23.052;2023-10-19T01:14:43;11.30;;;9.50;;
8333;SDS011;4204;43.004;23.052;2023-10-19T01:17:11;12.00;;;9.57;;
8333;SDS011;4204;43.004;23.052;2023-10-19T01:19:38;11.73;;;9.67;;
8333;SDS011;4204;43.004;23.052;2023-10-19T01:22:08;12.23;;;9.47;;
8333;SDS011;4204;43.004;23.052;2023-10-19T01:24:44;11.57;;;9.43;;
8333;SDS011;4204;43.004;23.052;2023-10-19T01:27:12;12.10;;;9.47;;
8333;SDS011;4204;43.004;23.052;2023-10-19T01:29:40;10.40;;;9.23;;
8333;SDS011;4204;43.004;23.052;2023-10-19T01:32:08;13.47;;;9.33;;
8333;SDS011;4204;43.004;23.052;2023-10-19T01:34:36;9.97;;;8.23;;
8333;SDS011;4204;43.004;23.052;2023-10-19T01:37:04;11.83;;;8.87;;
8333;SDS011;4204;43.004;23.052;2023-10-19T01:39:31;11.00;;;8.60;;
8333;SDS011;4204;43.004;23.052;2023-10-19T01:42:02;9.77;;;8.77;;
8333;SDS011;4204;43.004;23.052;2023-10-19T01:44:30;10.93;;;8.27;;
8333;SDS011;4204;43.004;23.052;2023-10-19T01:46:59;9.80;;;8.63;;
8333;SDS011;4204;43.004;23.052;2023-10-19T01:49:26;9.87;;;8.40;;
8333;SDS011;4204;43.004;23.052;2023-10-19T01:51:55;9.83;;;8.53;;
8333;SDS011;4204;43.004;23.052;2023-10-19T01:54:23;11.83;;;8.00;;
8333;SDS011;4204;43.004;23.052;2023-10-19T01:56:52;9.73;;;8.40;;
8333;SDS011;4204;43.004;23.052;2023-10-19T01:59:22;9.60;;;7.93;;
8333;SDS011;4204;43.004;23.052;2023-10-19T02:01:54;10.57;;;8.77;;
8333;SDS011;4204;43.004;23.052;2023-10-19T02:04:21;11.03;;;8.97;;
8333;SDS011;4204;43.004;23.052;2023-10-19T02:06:49;10.17;;;8.60;;
8333;SDS011;4204;43.004;23.052;2023-10-19T02:09:18;12.03;;;7.80;;
8333;SDS011;4204;43.004;23.052;2023-10-19T02:11:50;10.00;;;7.93;;
8333;SDS011;4204;43.004;23.052;2023-10-19T02:14:19;10.73;;;8.20;;
8333;SDS011;4204;43.004;23.052;2023-10-19T02:16:50;9.77;;;8.00;;
8333;SDS011;4204;43.004;23.052;2023-10-19T02:19:20;11.00;;;8.37;;
8333;SDS011;4204;43.004;23.052;2023-10-19T02:21:47;13.67;;;8.57;;
8333;SDS011;4204;43.004;23.052;2023-10-19T02:24:15;10.27;;;8.40;;
8333;SDS011;4204;43.004;23.052;2023-10-19T02:26:43;10.27;;;8.30;;
8333;SDS011;4204;43.004;23.052;2023-10-19T02:29:13;10.57;;;8.13;;
8333;SDS011;4204;43.004;23.052;2023-10-19T02:31:41;11.57;;;7.87;;
8333;SDS011;4204;43.004;23.052;2023-10-19T02:34:10;10.40;;;8.40;;
8333;SDS011;4204;43.004;23.052;2023-10-19T02:36:41;9.53;;;7.50;;
8333;SDS011;4204;43.004;23.052;2023-10-19T02:39:10;11.23;;;8.10;;
8333;SDS011;4204;43.004;23.052;2023-10-19T02:41:42;10.57;;;7.77;;
8333;SDS011;4204;43.004;23.052;2023-10-19T02:44:10;9.17;;;7.43;;
8333;SDS011;4204;43.004;23.052;2023-10-19T02:46:46;9.37;;;7.33;;
8333;SDS011;4204;43.004;23.052;2023-10-19T02:49:15;10.27;;;8.17;;
8333;SDS011;4204;43.004;23.052;2023-10-19T02:51:47;11.87;;;7.83;;
8333;SDS011;4204;43.004;23.052;2023-10-19T02:54:15;13.10;;;8.97;;
8333;SDS011;4204;43.004;23.052;2023-10-19T02:56:46;12.47;;;8.80;;
8333;SDS011;4204;43.004;23.052;2023-10-19T02:59:15;12.13;;;9.10;;
8333;SDS011;4204;43.004;23.052;2023-10-19T03:01:48;12.20;;;9.20;;
8333;SDS011;4204;43.004;23.052;2023-10-19T03:04:17;12.03;;;8.57;;
8333;SDS011;4204;43.004;23.052;2023-10-19T03:06:47;13.47;;;9.17;;
8333;SDS011;4204;43.004;23.052;2023-10-19T03:09:15;11.30;;;8.50;;
8333;SDS011;4204;43.004;23.052;2023-10-19T03:11:48;11.30;;;8.30;;
8333;SDS011;4204;43.004;23.052;2023-10-19T03:14:18;9.83;;;8.57;;
8333;SDS011;4204;43.004;23.052;2023-10-19T03:16:45;9.27;;;8.00;;
8333;SDS011;4204;43.004;23.052;2023-10-19T03:19:13;10.80;;;8.30;;
8333;SDS011;4204;43.004;23.052;2023-10-19T03:21:41;10.80;;;8.37;;
8333;SDS011;4204;43.004;23.052;2023-10-19T03:24:11;10.63;;;8.63;;
8333;SDS011;4204;43.004;23.052;2023-10-19T03:26:49;13.77;;;9.40;;
8333;SDS011;4204;43.004;23.052;2023-10-19T03:29:17;15.73;;;9.90;;
8333;SDS011;4204;43.004;23.052;2023-10-19T03:31:49;13.80;;;9.60;;
8333;SDS011;4204;43.004;23.052;2023-10-19T03:34:19;13.33;;;9.23;;
8333;SDS011;4204;43.004;23.052;2023-10-19T03:36:51;14.43;;;9.77;;
8333;SDS011;4204;43.004;23.052;2023-10-19T03:39:20;12.90;;;9.60;;
8333;SDS011;4204;43.004;23.052;2023-10-19T03:41:49;14.47;;;10.57;;
8333;SDS011;4204;43.004;23.052;2023-10-19T03:44:18;13.37;;;9.97;;
8333;SDS011;4204;43.004;23.052;2023-10-19T03:46:50;14.80;;;10.93;;
8333;SDS011;4204;43.004;23.052;2023-10-19T03:49:23;15.50;;;11.07;;
8333;SDS011;4204;43.004;23.052;2023-10-19T03:51:58;15.17;;;10.37;;
8333;SDS011;4204;43.004;23.052;2023-10-19T03:54:27;12.47;;;9.50;;
8333;SDS011;4204;43.004;23.052;2023-10-19T03:56:56;12.47;;;9.53;;
8333;SDS011;4204;43.004;23.052;2023-10-19T03:59:27;14.90;;;10.27;;
8333;SDS011;4204;43.004;23.052;2023-10-19T04:01:59;12.83;;;10.47;;
8333;SDS011;4204;43.004;23.052;2023-10-19T04:04:26;15.63;;;10.20;;
8333;SDS011;4204;43.004;23.052;2023-10-19T04:06:55;12.83;;;10.43;;
8333;SDS011;4204;43.004;23.052;2023-10-19T04:09:26;12.07;;;9.70;;
8333;SDS011;4204;43.004;23.052;2023-10-19T04:11:55;13.03;;;9.93;;
8333;SDS011;4204;43.004;23.052;2023-10-19T04:14:23;13.50;;;10.17;;
8333;SDS011;4204;43.004;23.052;2023-10-19T04:16:51;11.10;;;8.97;;
8333;SDS011;4204;43.004;23.052;2023-10-19T04:19:19;14.20;;;10.27;;
8333;SDS011;4204;43.004;23.052;2023-10-19T04:21:46;15.67;;;10.17;;
8333;SDS011;4204;43.004;23.052;2023-10-19T04:24:16;13.10;;;10.13;;
8333;SDS011;4204;43.004;23.052;2023-10-19T04:26:46;13.67;;;10.97;;
8333;SDS011;4204;43.004;23.052;2023-10-19T04:29:15;15.20;;;9.90;;
8333;SDS011;4204;43.004;23.052;2023-10-19T04:31:46;12.90;;;8.87;;
8333;SDS011;4204;43.004;23.052;2023-10-19T04:34:20;13.07;;;9.27;;
8333;SDS011;4204;43.004;23.052;2023-10-19T04:36:48;15.30;;;9.77;;
8333;SDS011;4204;43.004;23.052;2023-10-19T04:39:16;10.87;;;8.63;;
8333;SDS011;4204;43.004;23.052;2023-10-19T04:41:47;13.03;;;9.03;;
8333;SDS011;4204;43.004;23.052;2023-10-19T04:44:15;15.57;;;9.30;;
8333;SDS011;4204;43.004;23.052;2023-10-19T04:46:43;12.40;;;9.43;;
8333;SDS011;4204;43.004;23.052;2023-10-19T04:49:12;14.43;;;9.13;;
8333;SDS011;4204;43.004;23.052;2023-10-19T04:51:40;11.80;;;8.90;;
8333;SDS011;4204;43.004;23.052;2023-10-19T04:54:09;11.97;;;9.13;;
8333;SDS011;4204;43.004;23.052;2023-10-19T04:56:37;17.07;;;9.60;;
8333;SDS011;4204;43.004;23.052;2023-10-19T04:59:06;13.37;;;10.00;;
8333;SDS011;4204;43.004;23.052;2023-10-19T05:01:34;11.33;;;9.43;;
8333;SDS011;4204;43.004;23.052;2023-10-19T05:04:01;12.40;;;9.57;;
8333;SDS011;4204;43.004;23.052;2023-10-19T05:06:29;13.27;;;9.50;;
8333;SDS011;4204;43.004;23.052;2023-10-19T05:08:57;11.60;;;8.93;;
8333;SDS011;4204;43.004;23.052;2023-10-19T05:11:25;13.53;;;9.37;;
8333;SDS011;4204;43.004;23.052;2023-10-19T05:13:54;14.67;;;10.50;;
8333;SDS011;4204;43.004;23.052;2023-10-19T05:16:23;15.53;;;10.37;;
8333;SDS011;4204;43.004;23.052;2023-10-19T05:18:52;16.40;;;11.50;;
8333;SDS011;4204;43.004;23.052;2023-10-19T05:21:20;16.73;;;11.57;;
8333;SDS011;4204;43.004;23.052;2023-10-19T05:23:47;14.43;;;10.40;;
8333;SDS011;4204;43.004;23.052;2023-10-19T05:26:15;15.50;;;12.07;;
8333;SDS011;4204;43.004;23.052;2023-10-19T05:28:43;14.37;;;10.60;;
8333;SDS011;4204;43.004;23.052;2023-10-19T05:31:11;14.60;;;10.80;;
8333;SDS011;4204;43.004;23.052;2023-10-19T05:33:40;14.37;;;10.73;;
8333;SDS011;4204;43.004;23.052;2023-10-19T05:36:08;14.30;;;10.27;;
8333;SDS011;4204;43.004;23.052;2023-10-19T05:38:36;15.07;;;9.77;;
8333;SDS011;4204;43.004;23.052;2023-10-19T05:41:03;15.57;;;10.67;;
8333;SDS011;4204;43.004;23.052;2023-10-19T05:43:31;13.50;;;10.63;;
8333;SDS011;4204;43.004;23.052;2023-10-19T05:46:00;14.37;;;10.83;;
8333;SDS011;4204;43.004;23.052;2023-10-19T05:48:28;13.50;;;10.63;;
8333;SDS011;4204;43.004;23.052;2023-10-19T05:50:57;14.23;;;10.10;;
8333;SDS011;4204;43.004;23.052;2023-10-19T05:53:25;13.43;;;10.20;;
8333;SDS011;4204;43.004;23.052;2023-10-19T05:55:52;13.73;;;10.37;;
8333;SDS011;4204;43.004;23.052;2023-10-19T05:58:20;14.30;;;10.80;;
8333;SDS011;4204;43.004;23.052;2023-10-19T06:00:48;15.37;;;9.77;;
8333;SDS011;4204;43.004;23.052;2023-10-19T06:03:19;12.63;;;9.67;;
8333;SDS011;4204;43.004;23.052;2023-10-19T06:05:47;13.17;;;10.10;;
8333;SDS011;4204;43.004;23.052;2023-10-19T06:08:16;14.47;;;9.87;;
8333;SDS011;4204;43.004;23.052;2023-10-19T06:10:44;14.30;;;10.97;;
8333;SDS011;4204;43.004;23.052;2023-10-19T06:13:18;13.43;;;9.57;;
8333;SDS011;4204;43.004;23.052;2023-10-19T06:15:46;10.93;;;8.30;;
8333;SDS011;4204;43.004;23.052;2023-10-19T06:18:15;11.83;;;8.73;;
8333;SDS011;4204;43.004;23.052;2023-10-19T06:20:43;9.73;;;8.33;;
8333;SDS011;4204;43.004;23.052;2023-10-19T06:23:11;11.23;;;7.93;;
8333;SDS011;4204;43.004;23.052;2023-10-19T06:25:40;11.23;;;8.33;;
8333;SDS011;4204;43.004;23.052;2023-10-19T06:28:09;11.27;;;8.83;;
8333;SDS011;4204;43.004;23.052;2023-10-19T06:30:37;12.53;;;9.63;;
8333;SDS011;4204;43.004;23.052;2023-10-19T06:33:06;8.13;;;7.10;;
8333;SDS011;4204;43.004;23.052;2023-10-19T06:35:34;8.60;;;7.27;;
8333;SDS011;4204;43.004;23.052;2023-10-19T06:38:03;12.73;;;7.73;;
8333;SDS011;4204;43.004;23.052;2023-10-19T06:40:33;9.97;;;7.97;;
8333;SDS011;4204;43.004;23.052;2023-10-19T06:43:03;11.87;;;8.03;;
8333;SDS011;4204;43.004;23.052;2023-10-19T06:45:32;10.80;;;8.03;;
8333;SDS011;4204;43.004;23.052;2023-10-19T06:48:00;10.50;;;7.93;;
8333;SDS011;4204;43.004;23.052;2023-10-19T06:50:28;11.30;;;8.60;;
8333;SDS011;4204;43.004;23.052;2023-10-19T06:52:56;13.63;;;9.10;;
8333;SDS011;4204;43.004;23.052;2023-10-19T06:55:23;10.30;;;7.87;;
8333;SDS011;4204;43.004;23.052;2023-10-19T06:57:54;11.97;;;7.97;;
8333;SDS011;4204;43.004;23.052;2023-10-19T07:00:24;13.00;;;7.53;;
8333;SDS011;4204;43.004;23.052;2023-10-19T07:02:53;12.50;;;7.63;;
8333;SDS011;4204;43.004;23.052;2023-10-19T07:05:23;8.93;;;7.80;;
8333;SDS011;4204;43.004;23.052;2023-10-19T07:07:52;9.67;;;7.97;;
8333;SDS011;4204;43.004;23.052;2023-10-19T07:10:20;9.23;;;7.37;;
8333;SDS011;4204;43.004;23.052;2023-10-19T07:12:50;8.03;;;6.80;;
8333;SDS011;4204;43.004;23.052;2023-10-19T07:15:19;9.30;;;7.13;;
8333;SDS011;4204;43.004;23.052;2023-10-19T07:17:49;9.13;;;6.60;;
8333;SDS011;4204;43.004;23.052;2023-10-19T07:20:20;8.03;;;6.73;;
8333;SDS011;4204;43.004;23.052;2023-10-19T07:22:56;9.03;;;6.87;;
8333;SDS011;4204;43.004;23.052;2023-10-19T07:25:26;7.60;;;6.80;;
8333;SDS011;4204;43.004;23.052;2023-10-19T07:27:55;8.17;;;6.53;;
8333;SDS011;4204;43.004;23.052;2023-10-19T07:30:25;9.57;;;6.30;;
8333;SDS011;4204;43.004;23.052;2023-10-19T07:32:55;10.00;;;6.50;;
8333;SDS011;4204;43.004;23.052;2023-10-19T07:35:24;7.73;;;6.80;;
8333;SDS011;4204;43.004;23.052;2023-10-19T07:37:53;10.40;;;7.80;;
8333;SDS011;4204;43.004;23.052;2023-10-19T07:40:23;10.63;;;8.00;;
8333;SDS011;4204;43.004;23.052;2023-10-19T07:42:51;8.43;;;7.10;;
8333;SDS011;4204;43.004;23.052;2023-10-19T07:45:21;8.67;;;6.53;;
8333;SDS011;4204;43.004;23.052;2023-10-19T07:47:48;7.67;;;6.87;;
8333;SDS011;4204;43.004;23.052;2023-10-19T07:50:18;10.43;;;6.67;;
8333;SDS011;4204;43.004;23.052;2023-10-19T07:52:49;8.13;;;6.73;;
8333;SDS011;4204;43.004;23.052;2023-10-19T07:55:20;9.10;;;6.30;;
8333;SDS011;4204;43.004;23.052;2023-10-19T07:57:50;11.00;;;7.23;;
8333;SDS011;4204;43.004;23.052;2023-10-19T08:00:18;6.00;;;5.40;;
8333;SDS011;4204;43.004;23.052;2023-10-19T08:02:47;6.73;;;5.93;;
8333;SDS011;4204;43.004;23.052;2023-10-19T08:05:18;7.83;;;6.47;;
8333;SDS011;4204;43.004;23.052;2023-10-19T08:07:46;6.77;;;6.07;;
8333;SDS011;4204;43.004;23.052;2023-10-19T08:10:14;7.10;;;5.63;;
8333;SDS011;4204;43.004;23.052;2023-10-19T08:12:44;7.07;;;6.37;;
8333;SDS011;4204;43.004;23.052;2023-10-19T08:15:13;6.33;;;5.70;;
8333;SDS011;4204;43.004;23.052;2023-10-19T08:17:42;6.77;;;5.70;;
8333;SDS011;4204;43.004;23.052;2023-10-19T08:20:13;6.90;;;6.20;;
8333;SDS011;4204;43.004;23.052;2023-10-19T08:22:50;6.47;;;5.80;;
8333;SDS011;4204;43.004;23.052;2023-10-19T08:25:18;7.53;;;5.97;;
8333;SDS011;4204;43.004;23.052;2023-10-19T08:27:47;6.10;;;5.47;;
8333;SDS011;4204;43.004;23.052;2023-10-19T08:30:16;7.73;;;6.07;;
8333;SDS011;4204;43.004;23.052;2023-10-19T08:32:45;6.73;;;5.80;;
8333;SDS011;4204;43.004;23.052;2023-10-19T08:35:14;6.27;;;5.67;;
8333;SDS011;4204;43.004;23.052;2023-10-19T08:37:44;7.13;;;5.73;;
8333;SDS011;4204;43.004;23.052;2023-10-19T08:40:14;9.40;;;6.10;;
8333;SDS011;4204;43.004;23.052;2023-10-19T08:42:43;8.57;;;6.20;;
8333;SDS011;4204;43.004;23.052;2023-10-19T08:45:12;7.87;;;6.07;;
8333;SDS011;4204;43.004;23.052;2023-10-19T08:47:43;6.87;;;5.60;;
8333;SDS011;4204;43.004;23.052;2023-10-19T08:50:16;6.73;;;5.53;;
8333;SDS011;4204;43.004;23.052;2023-10-19T08:52:49;7.20;;;5.60;;
8333;SDS011;4204;43.004;23.052;2023-10-19T08:55:22;6.40;;;5.80;;
8333;SDS011;4204;43.004;23.052;2023-10-19T08:57:50;7.60;;;5.60;;
8333;SDS011;4204;43.004;23.052;2023-10-19T09:00:18;7.80;;;6.03;;
8333;SDS011;4204;43.004;23.052;2023-10-19T09:02:51;7.70;;;6.30;;
8333;SDS011;4204;43.004;23.052;2023-10-19T09:05:19;6.93;;;6.03;;
8333;SDS011;4204;43.004;23.052;2023-10-19T09:07:50;8.00;;;6.70;;
8333;SDS011;4204;43.004;23.052;2023-10-19T09:10:22;7.77;;;6.10;;
8333;SDS011;4204;43.004;23.052;2023-10-19T09:12:59;7.67;;;6.40;;
8333;SDS011;4204;43.004;23.052;2023-10-19T09:15:28;7.23;;;6.20;;
8333;SDS011;4204;43.004;23.052;2023-10-19T09:17:58;9.40;;;6.93;;
8333;SDS011;4204;43.004;23.052;2023-10-19T09:20:39;10.33;;;7.50;;
8333;SDS011;4204;43.004;23.052;2023-10-19T09:23:07;8.37;;;6.63;;
8333;SDS011;4204;43.004;23.052;2023-10-19T09:25:38;7.27;;;6.50;;
8333;SDS011;4204;43.004;23.052;2023-10-19T09:28:06;8.67;;;6.77;;
8333;SDS011;4204;43.004;23.052;2023-10-19T09:30:36;7.10;;;6.40;;
8333;SDS011;4204;43.004;23.052;2023-10-19T09:33:05;7.10;;;6.33;;
8333;SDS011;4204;43.004;23.052;2023-10-19T09:35:35;8.20;;;7.40;;
8333;SDS011;4204;43.004;23.052;2023-10-19T09:38:05;9.30;;;6.30;;
8333;SDS011;4204;43.004;23.052;2023-10-19T09:40:33;7.67;;;6.87;;
8333;SDS011;4204;43.004;23.052;2023-10-19T09:43:03;8.03;;;7.23;;
8333;SDS011;4204;43.004;23.052;2023-10-19T09:45:34;7.30;;;6.60;;
8333;SDS011;4204;43.004;23.052;2023-10-19T09:48:07;10.63;;;6.67;;
8333;SDS011;4204;43.004;23.052;2023-10-19T09:50:43;10.20;;;6.73;;
8333;SDS011;4204;43.004;23.052;2023-10-19T09:53:17;14.50;;;10.60;;
8333;SDS011;4204;43.004;23.052;2023-10-19T09:55:46;6.27;;;5.67;;
8333;SDS011;4204;43.004;23.052;2023-10-19T09:58:19;6.77;;;5.80;;
8333;SDS011;4204;43.004;23.052;2023-10-19T10:00:50;6.97;;;5.63;;
8333;SDS011;4204;43.004;23.052;2023-10-19T10:06:12;9.33;;;6.37;;
8333;SDS011;4204;43.004;23.052;2023-10-19T10:08:41;6.37;;;5.77;;
8333;SDS011;4204;43.004;23.052;2023-10-19T10:11:20;6.87;;;6.13;;
8333;SDS011;4204;43.004;23.052;2023-10-19T10:13:51;6.53;;;5.43;;
8333;SDS011;4204;43.004;23.052;2023-10-19T10:16:21;8.20;;;6.47;;
8333;SDS011;4204;43.004;23.052;2023-10-19T10:18:51;6.93;;;6.23;;
8333;SDS011;4204;43.004;23.052;2023-10-19T10:21:25;5.80;;;5.20;;
8333;SDS011;4204;43.004;23.052;2023-10-19T10:23:54;6.40;;;5.60;;
8333;SDS011;4204;43.004;23.052;2023-10-19T10:26:23;7.30;;;6.20;;
8333;SDS011;4204;43.004;23.052;2023-10-19T10:29:13;6.17;;;5.57;;
8333;SDS011;4204;43.004;23.052;2023-10-19T10:31:52;7.97;;;5.43;;
8333;SDS011;4204;43.004;23.052;2023-10-19T10:37:11;7.17;;;5.87;;
8333;SDS011;4204;43.004;23.052;2023-10-19T10:39:40;8.00;;;5.53;;
8333;SDS011;4204;43.004;23.052;2023-10-19T10:42:16;6.40;;;5.80;;
8333;SDS011;4204;43.004;23.052;2023-10-19T10:44:45;7.37;;;5.60;;
8333;SDS011;4204;43.004;23.052;2023-10-19T10:47:18;6.30;;;5.33;;
8333;SDS011;4204;43.004;23.052;2023-10-19T10:49:49;6.07;;;5.43;;
8333;SDS011;4204;43.004;23.052;2023-10-19T10:52:24;7.57;;;5.83;;
8333;SDS011;4204;43.004;23.052;2023-10-19T10:54:55;6.67;;;5.40;;
8333;SDS011;4204;43.004;23.052;2023-10-19T10:57:32;7.83;;;5.57;;
8333;SDS011;4204;43.004;23.052;2023-10-19T11:00:02;5.83;;;5.20;;
8333;SDS011;4204;43.004;23.052;2023-10-19T11:02:34;8.17;;;7.30;;
8333;SDS011;4204;43.004;23.052;2023-10-19T11:05:06;6.70;;;5.63;;
8333;SDS011;4204;43.004;23.052;2023-10-19T11:07:37;6.10;;;5.50;;
8333;SDS011;4204;43.004;23.052;2023-10-19T11:10:08;5.57;;;5.03;;
8333;SDS011;4204;43.004;23.052;2023-10-19T11:12:39;5.87;;;5.27;;
8333;SDS011;4204;43.004;23.052;2023-10-19T11:15:08;12.83;;;5.60;;
8333;SDS011;4204;43.004;23.052;2023-10-19T11:17:42;7.50;;;5.43;;
8333;SDS011;4204;43.004;23.052;2023-10-19T11:20:20;8.10;;;6.00;;
8333;SDS011;4204;43.004;23.052;2023-10-19T11:22:49;6.33;;;5.73;;
8333;SDS011;4204;43.004;23.052;2023-10-19T11:25:20;10.73;;;9.73;;
8333;SDS011;4204;43.004;23.052;2023-10-19T11:27:53;8.87;;;6.23;;
8333;SDS011;4204;43.004;23.052;2023-10-19T11:30:28;10.00;;;7.63;;
8333;SDS011;4204;43.004;23.052;2023-10-19T11:32:57;6.67;;;6.07;;
8333;SDS011;4204;43.004;23.052;2023-10-19T11:35:27;13.20;;;9.37;;
8333;SDS011;4204;43.004;23.052;2023-10-19T11:38:00;6.87;;;5.83;;
8333;SDS011;4204;43.004;23.052;2023-10-19T11:40:28;5.90;;;5.00;;
8333;SDS011;4204;43.004;23.052;2023-10-19T11:42:59;8.70;;;7.63;;
8333;SDS011;4204;43.004;23.052;2023-10-19T11:45:31;11.40;;;9.27;;
8333;SDS011;4204;43.004;23.052;2023-10-19T11:48:01;5.80;;;5.20;;
8333;SDS011;4204;43.004;23.052;2023-10-19T11:50:29;7.63;;;6.70;;
8333;SDS011;4204;43.004;23.052;2023-10-19T11:52:56;10.67;;;7.30;;
8333;SDS011;4204;43.004;23.052;2023-10-19T11:55:24;12.53;;;8.93;;
8333;SDS011;4204;43.004;23.052;2023-10-19T11:57:52;6.83;;;5.77;;
8333;SDS011;4204;43.004;23.052;2023-10-19T12:00:20;6.50;;;5.37;;
8333;SDS011;4204;43.004;23.052;2023-10-19T12:02:52;24.50;;;16.00;;
8333;SDS011;4204;43.004;23.052;2023-10-19T12:05:20;10.30;;;7.60;;
8333;SDS011;4204;43.004;23.052;2023-10-19T12:07:49;7.00;;;5.40;;
8333;SDS011;4204;43.004;23.052;2023-10-19T12:10:18;6.00;;;5.30;;
8333;SDS011;4204;43.004;23.052;2023-10-19T12:12:51;7.40;;;5.70;;
8333;SDS011;4204;43.004;23.052;2023-10-19T12:15:20;10.23;;;8.50;;
8333;SDS011;4204;43.004;23.052;2023-10-19T12:17:48;6.20;;;5.30;;
8333;SDS011;4204;43.004;23.052;2023-10-19T12:20:18;6.03;;;4.97;;
8333;SDS011;4204;43.004;23.052;2023-10-19T12:22:47;8.87;;;5.17;;
8333;SDS011;4204;43.004;23.052;2023-10-19T12:25:18;6.00;;;5.20;;
8333;SDS011;4204;43.004;23.052;2023-10-19T12:27:46;6.70;;;5.23;;
8333;SDS011;4204;43.004;23.052;2023-10-19T12:30:13;5.60;;;5.10;;
8333;SDS011;4204;43.004;23.052;2023-10-19T12:32:46;5.90;;;5.03;;
8333;SDS011;4204;43.004;23.052;2023-10-19T12:35:15;7.40;;;6.70;;
8333;SDS011;4204;43.004;23.052;2023-10-19T12:37:47;5.73;;;4.93;;
8333;SDS011;4204;43.004;23.052;2023-10-19T12:40:17;5.00;;;4.50;;
8333;SDS011;4204;43.004;23.052;2023-10-19T12:42:55;5.93;;;5.07;;
8333;SDS011;4204;43.004;23.052;2023-10-19T12:45:23;7.27;;;4.97;;
8333;SDS011;4204;43.004;23.052;2023-10-19T12:47:52;6.43;;;5.33;;
8333;SDS011;4204;43.004;23.052;2023-10-19T12:50:21;5.50;;;4.53;;
8333;SDS011;4204;43.004;23.052;2023-10-19T12:52:51;5.47;;;4.97;;
8333;SDS011;4204;43.004;23.052;2023-10-19T12:55:19;5.77;;;4.83;;
8333;SDS011;4204;43.004;23.052;2023-10-19T12:57:47;5.20;;;4.70;;
8333;SDS011;4204;43.004;23.052;2023-10-19T13:00:17;5.83;;;4.20;;
8333;SDS011;4204;43.004;23.052;2023-10-19T13:02:52;5.33;;;4.83;;
8333;SDS011;4204;43.004;23.052;2023-10-19T13:05:26;5.20;;;4.57;;
8333;SDS011;4204;43.004;23.052;2023-10-19T13:07:56;6.40;;;4.53;;
8333;SDS011;4204;43.004;23.052;2023-10-19T13:10:30;5.10;;;4.40;;
8333;SDS011;4204;43.004;23.052;2023-10-19T13:12:59;4.80;;;4.40;;
8333;SDS011;4204;43.004;23.052;2023-10-19T13:15:30;5.80;;;5.20;;
8333;SDS011;4204;43.004;23.052;2023-10-19T13:17:58;6.10;;;4.93;;
8333;SDS011;4204;43.004;23.052;2023-10-19T13:20:27;6.40;;;4.73;;
8333;SDS011;4204;43.004;23.052;2023-10-19T13:23:01;5.43;;;4.83;;
8333;SDS011;4204;43.004;23.052;2023-10-19T13:25:30;6.50;;;4.63;;
8333;SDS011;4204;43.004;23.052;2023-10-19T13:28:08;6.30;;;5.00;;
8333;SDS011;4204;43.004;23.052;2023-10-19T13:30:37;6.30;;;5.07;;
8333;SDS011;4204;43.004;23.052;2023-10-19T13:33:05;6.97;;;4.73;;
8333;SDS011;4204;43.004;23.052;2023-10-19T13:35:35;5.27;;;4.77;;
8333;SDS011;4204;43.004;23.052;2023-10-19T13:38:05;7.03;;;4.70;;
8333;SDS011;4204;43.004;23.052;2023-10-19T13:40:35;7.40;;;4.60;;
8333;SDS011;4204;43.004;23.052;2023-10-19T13:43:04;7.03;;;5.47;;
8333;SDS011;4204;43.004;23.052;2023-10-19T13:45:52;7.47;;;6.70;;
8333;SDS011;4204;43.004;23.052;2023-10-19T13:48:20;11.30;;;8.67;;
8333;SDS011;4204;43.004;23.052;2023-10-19T13:50:49;7.37;;;6.67;;
8333;SDS011;4204;43.004;23.052;2023-10-19T13:53:20;6.90;;;6.00;;
8333;SDS011;4204;43.004;23.052;2023-10-19T13:55:48;6.37;;;5.20;;
8333;SDS011;4204;43.004;23.052;2023-10-19T13:58:16;6.57;;;5.50;;
8333;SDS011;4204;43.004;23.052;2023-10-19T14:00:44;6.77;;;6.07;;
8333;SDS011;4204;43.004;23.052;2023-10-19T14:03:13;12.97;;;11.00;;
8333;SDS011;4204;43.004;23.052;2023-10-19T14:05:42;8.57;;;7.57;;
8333;SDS011;4204;43.004;23.052;2023-10-19T14:08:14;7.40;;;6.57;;
8333;SDS011;4204;43.004;23.052;2023-10-19T14:10:43;7.00;;;5.50;;
8333;SDS011;4204;43.004;23.052;2023-10-19T14:13:11;6.20;;;5.13;;
8333;SDS011;4204;43.004;23.052;2023-10-19T14:15:40;5.27;;;4.70;;
8333;SDS011;4204;43.004;23.052;2023-10-19T14:18:08;7.60;;;4.70;;
8333;SDS011;4204;43.004;23.052;2023-10-19T14:20:37;5.20;;;4.70;;
8333;SDS011;4204;43.004;23.052;2023-10-19T14:23:06;4.53;;;4.13;;
8333;SDS011;4204;43.004;23.052;2023-10-19T14:25:38;4.37;;;3.97;;
8333;SDS011;4204;43.004;23.052;2023-10-19T14:28:09;6.13;;;4.20;;
8333;SDS011;4204;43.004;23.052;2023-10-19T14:30:38;4.60;;;4.20;;
8333;SDS011;4204;43.004;23.052;2023-10-19T14:33:05;5.50;;;3.97;;
8333;SDS011;4204;43.004;23.052;2023-10-19T14:35:37;6.07;;;5.47;;
8333;SDS011;4204;43.004;23.052;2023-10-19T14:38:08;6.37;;;5.67;;
8333;SDS011;4204;43.004;23.052;2023-10-19T14:40:39;7.00;;;6.30;;
8333;SDS011;4204;43.004;23.052;2023-10-19T14:43:11;9.23;;;6.90;;
8333;SDS011;4204;43.004;23.052;2023-10-19T14:45:40;11.13;;;7.33;;
8333;SDS011;4204;43.004;23.052;2023-10-19T14:48:09;8.70;;;7.43;;
8333;SDS011;4204;43.004;23.052;2023-10-19T14:50:37;6.00;;;5.30;;
8333;SDS011;4204;43.004;23.052;2023-10-19T14:53:05;6.63;;;5.87;;
8333;SDS011;4204;43.004;23.052;2023-10-19T14:55:32;7.33;;;5.53;;
8333;SDS011;4204;43.004;23.052;2023-10-19T14:58:00;8.17;;;5.90;;
8333;SDS011;4204;43.004;23.052;2023-10-19T15:00:30;6.83;;;5.57;;
8333;SDS011;4204;43.004;23.052;2023-10-19T15:03:00;7.33;;;5.37;;
8333;SDS011;4204;43.004;23.052;2023-10-19T15:05:33;11.50;;;8.30;;
8333;SDS011;4204;43.004;23.052;2023-10-19T15:08:02;9.83;;;7.17;;
8333;SDS011;4204;43.004;23.052;2023-10-19T15:10:32;8.13;;;6.87;;
8333;SDS011;4204;43.004;23.052;2023-10-19T15:13:01;32.70;;;18.67;;
8333;SDS011;4204;43.004;23.052;2023-10-19T15:15:32;46.87;;;25.33;;
8333;SDS011;4204;43.004;23.052;2023-10-19T15:18:00;36.47;;;20.87;;